Meteorología y climatología de Navarra
Datos de la estación - Meteo Navarra

Estación de Doneztebe-Santesteban GN

Altitud 125 m.


Datos desde el 07/12/2018 hasta el 08/12/2018 en horario solar
Los datos son PROVISIONALES

Anterior Página 1 de 1 Siguiente Descargar: Formato para Excel 2000 o superior   Formato csv   Formato para OpenOffice Calc
Fecha Temperatura Humedad relativa Radiación global Insolación Precipitación Velocidad viento 10 m Velocidad viento 10 m Dirección viento 10 m
ºC % W/m² s l/m² m/s km/h º
07/12/2018 0:00 7.3 98 0.0 0 0.0 0.8 2.8 323
07/12/2018 0:10 6.9 98 0.0 0 0.0 0.4 1.4 309
07/12/2018 0:20 6.7 98 0.0 0 0.0 0.4 1.3 163
07/12/2018 0:30 6.6 99 0.0 0 0.0 0.1 0.4 151
07/12/2018 0:40 6.5 99 0.0 0 0.0 0.2 0.9 285
07/12/2018 0:50 6.1 99 0.0 0 0.0 0.3 0.9 87
07/12/2018 1:00 6.0 99 0.0 0 0.0 0.3 0.9 256
07/12/2018 1:10 5.6 99 0.0 0 0.0 0.1 0.2 295
07/12/2018 1:20 5.5 99 0.0 0 0.0 0.0 0.1 195
07/12/2018 1:30 5.2 99 0.0 0 0.0 0.1 0.3 289
07/12/2018 1:40 5.1 99 0.0 0 0.0 0.0 0.0 0
07/12/2018 1:50 4.8 99 0.0 0 0.0 0.1 0.3 306
07/12/2018 2:00 4.7 99 0.0 0 0.0 0.0 0.1 306
07/12/2018 2:10 4.4 99 0.0 0 0.0 0.1 0.3 296
07/12/2018 2:20 4.3 99 0.0 0 0.0 0.2 0.8 165
07/12/2018 2:30 4.1 99 0.0 0 0.0 0.2 0.9 267
07/12/2018 2:40 4.1 99 0.0 0 0.0 0.1 0.5 346
07/12/2018 2:50 4.3 100 0.0 0 0.0 0.1 0.3 106
07/12/2018 3:00 4.6 100 0.0 0 0.0 0.0 0.1 137
07/12/2018 3:10 5.1 100 0.0 0 0.0 0.0 0.0 0
07/12/2018 3:20 5.3 100 0.0 0 0.0 0.0 0.0 0
07/12/2018 3:30 5.4 100 0.0 0 0.0 0.2 0.6 264
07/12/2018 3:40 5.4 100 0.0 0 0.0 0.5 1.7 338
07/12/2018 3:50 5.4 100 0.0 0 0.0 0.4 1.4 8
07/12/2018 4:00 5.4 100 0.0 0 0.0 0.8 2.8 326
07/12/2018 4:10 5.1 100 0.0 0 0.0 0.4 1.4 297
07/12/2018 4:20 5.2 100 0.0 0 0.0 0.6 2.3 302
07/12/2018 4:30 5.3 100 0.0 0 0.0 0.8 3.0 338
07/12/2018 4:40 5.2 100 0.0 0 0.0 1.0 3.6 316
07/12/2018 4:50 5.2 100 0.0 0 0.0 0.5 1.7 336
07/12/2018 5:00 5.1 100 0.0 0 0.0 0.5 1.6 260
07/12/2018 5:10 5.2 100 0.0 0 0.0 0.6 2.0 6
07/12/2018 5:20 5.2 100 0.0 0 0.0 0.3 1.1 310
07/12/2018 5:30 5.1 100 0.0 0 0.0 0.3 1.2 311
07/12/2018 5:40 5.1 100 0.0 0 0.0 0.8 3.0 351
07/12/2018 5:50 5.0 100 0.0 0 0.0 0.7 2.6 327
07/12/2018 6:00 4.9 100 0.0 0 0.0 0.3 0.9 68
07/12/2018 6:10 4.9 100 0.0 0 0.0 0.3 0.9 282
07/12/2018 6:20 4.8 100 0.0 0 0.0 0.4 1.4 101
07/12/2018 6:30 4.9 100 0.0 0 0.0 0.5 1.9 137
07/12/2018 6:40 4.9 100 0.0 0 0.0 0.3 1.1 151
07/12/2018 6:50 4.8 100 0.0 0 0.0 0.7 2.5 121
07/12/2018 7:00 4.8 100 0.0 0 0.0 0.4 1.5 143
07/12/2018 7:10 4.8 100 0.0 0 0.0 0.7 2.4 142
07/12/2018 7:20 4.7 100 0.0 0 0.0 1.4 5.1 129
07/12/2018 7:30 4.6 100 0.0 0 0.0 1.1 4.0 161
07/12/2018 7:40 4.5 100 0.0 0 0.0 1.3 4.6 144
07/12/2018 7:50 4.4 100 0.0 0 0.0 1.5 5.3 154
07/12/2018 8:00 4.4 100 4.3 0 0.0 1.2 4.2 145
07/12/2018 8:10 4.4 100 26.8 0 0.0 1.2 4.3 154
07/12/2018 8:20 4.4 100 53.9 136 0.0 1.3 4.8 157
07/12/2018 8:30 4.4 100 65.2 118 0.0 1.9 6.7 148
07/12/2018 8:40 4.5 100 73.1 36 0.0 1.4 5.1 156
07/12/2018 8:50 4.5 100 96.8 216 0.0 1.7 6.0 155
07/12/2018 9:00 4.7 100 110.9 218 0.0 1.4 5.0 160
07/12/2018 9:10 4.8 100 169.7 570 0.0 1.4 4.9 144
07/12/2018 9:20 5.0 100 210.0 600 0.0 2.0 7.2 153
07/12/2018 9:30 5.2 100 306.2 600 0.0 1.0 3.7 165
07/12/2018 9:40 5.6 100 322.8 600 0.0 1.0 3.5 127
07/12/2018 9:50 6.0 99 326.2 600 0.0 0.6 2.2 129
07/12/2018 10:00 6.4 98 311.0 600 0.0 0.6 2.0 135
07/12/2018 10:10 6.9 95 319.7 600 0.0 0.3 1.0 234
07/12/2018 10:20 7.4 89 336.7 600 0.0 0.2 0.6 329
07/12/2018 10:30 7.9 85 349.9 600 0.0 0.3 1.1 161
07/12/2018 10:40 8.4 83 362.3 600 0.0 0.7 2.6 155
07/12/2018 10:50 9.4 79 374.9 600 0.0 0.8 2.8 160
07/12/2018 11:00 9.6 77 382.7 600 0.0 0.6 2.1 210
07/12/2018 11:10 10.6 76 391.2 600 0.0 0.5 1.8 176
07/12/2018 11:20 10.8 74 399.6 600 0.0 1.0 3.7 143
07/12/2018 11:30 11.5 71 405.2 600 0.0 0.6 2.0 173
07/12/2018 11:40 11.7 71 385.2 600 0.0 1.0 3.6 150
07/12/2018 11:50 12.4 69 410.1 600 0.0 0.4 1.4 188
07/12/2018 12:00 12.7 68 409.6 600 0.0 0.7 2.6 160
07/12/2018 12:10 13.2 69 409.2 600 0.0 1.0 3.5 149
07/12/2018 12:20 13.5 67 407.3 600 0.0 0.6 2.2 175
07/12/2018 12:30 14.0 65 405.6 600 0.0 0.7 2.6 150
07/12/2018 12:40 14.0 65 196.3 174 0.0 0.5 1.7 179
07/12/2018 12:50 13.7 67 190.5 78 0.0 0.4 1.6 45
07/12/2018 13:00 14.5 68 178.8 82 0.0 0.8 3.0 45
07/12/2018 13:10 14.5 66 160.0 0 0.0 1.2 4.4 147
07/12/2018 13:20 14.9 65 99.9 0 0.0 0.8 2.7 128
07/12/2018 13:30 15.1 70 61.1 0 0.0 0.2 0.8 67
07/12/2018 13:40 14.7 71 79.3 0 0.0 0.9 3.2 141
07/12/2018 13:50 14.7 68 77.5 0 0.0 1.3 4.7 132
07/12/2018 14:00 14.8 64 74.3 0 0.0 2.2 8.0 135
07/12/2018 14:10 14.8 63 72.9 0 0.0 1.9 6.9 137
07/12/2018 14:20 14.8 64 76.2 0 0.0 1.7 6.2 120
07/12/2018 14:30 14.7 66 42.3 0 0.0 1.7 6.2 147
07/12/2018 14:40 14.6 68 34.8 0 0.0 1.1 3.8 140
07/12/2018 14:50 14.9 65 27.5 0 0.0 0.5 1.9 208
07/12/2018 15:00 15.5 63 27.4 0 0.0 1.8 6.4 324
07/12/2018 15:10 15.8 63 28.3 0 0.0 2.3 8.3 338
07/12/2018 15:20 15.4 66 22.0 0 0.0 1.8 6.5 352
07/12/2018 15:30 15.3 67 33.0 0 0.0 1.2 4.3 300
07/12/2018 15:40 15.2 69 23.9 0 0.0 1.4 5.1 296
07/12/2018 15:50 14.9 71 3.9 0 0.0 0.7 2.5 271
07/12/2018 16:00 14.5 73 0.0 0 0.0 1.1 4.1 304
07/12/2018 16:10 14.1 76 0.0 0 0.0 0.1 0.3 244
07/12/2018 16:20 13.6 80 0.0 0 0.0 0.3 1.0 252
07/12/2018 16:30 13.2 84 0.0 0 0.0 0.6 2.3 264
07/12/2018 16:40 12.9 88 0.0 0 0.1 0.8 2.8 37
07/12/2018 16:50 12.8 90 0.0 0 0.2 1.5 5.3 353
07/12/2018 17:00 12.8 91 0.0 0 0.1 1.7 6.1 273
07/12/2018 17:10 12.6 89 0.0 0 0.1 0.9 3.2 80
07/12/2018 17:20 12.3 93 0.0 0 0.0 0.7 2.5 159
07/12/2018 17:30 11.9 96 0.0 0 0.0 1.1 4.0 148
07/12/2018 17:40 11.7 97 0.0 0 0.1 0.9 3.1 70
07/12/2018 17:50 11.7 97 0.0 0 0.1 0.4 1.4 140
07/12/2018 18:00 11.6 98 0.0 0 0.0 0.9 3.2 147
07/12/2018 18:10 11.5 98 0.0 0 0.0 1.0 3.6 171
07/12/2018 18:20 11.6 97 0.0 0 0.0 0.6 2.3 108
07/12/2018 18:30 11.5 97 0.0 0 0.1 0.4 1.6 121
07/12/2018 18:40 11.5 98 0.0 0 0.2 0.7 2.6 120
07/12/2018 18:50 11.3 96 0.0 0 0.1 1.4 4.9 324
07/12/2018 19:00 11.2 93 0.0 0 0.1 0.9 3.3 305
07/12/2018 19:10 11.0 94 0.0 0 0.1 0.7 2.4 70
07/12/2018 19:20 10.9 96 0.0 0 0.1 0.6 2.1 162
07/12/2018 19:30 10.7 97 0.0 0 0.3 0.4 1.5 121
07/12/2018 19:40 10.6 97 0.0 0 0.5 0.8 2.8 210
07/12/2018 19:50 10.4 96 0.0 0 0.1 0.9 3.2 319
07/12/2018 20:00 10.2 93 0.0 0 0.2 1.1 4.1 255
07/12/2018 20:10 10.1 93 0.0 0 0.2 0.7 2.6 264
07/12/2018 20:20 9.9 95 0.0 0 0.3 0.9 3.2 219
07/12/2018 20:30 9.8 96 0.0 0 0.1 1.1 4.0 178
07/12/2018 20:40 9.7 95 0.0 0 0.0 1.3 4.7 179
07/12/2018 20:50 9.8 96 0.0 0 0.0 0.7 2.7 314
07/12/2018 21:00 9.7 97 0.0 0 0.0 0.5 1.7 334
07/12/2018 21:10 9.6 97 0.0 0 0.0 1.2 4.2 65
07/12/2018 21:20 9.6 98 0.0 0 0.1 0.8 3.0 244
07/12/2018 21:30 9.5 98 0.0 0 0.0 1.1 3.8 329
07/12/2018 21:40 9.5 98 0.0 0 0.0 0.6 2.0 284
07/12/2018 21:50 9.5 98 0.0 0 0.0 0.9 3.3 297
07/12/2018 22:00 9.4 99 0.0 0 0.0 1.1 3.8 316
07/12/2018 22:10 9.5 99 0.0 0 0.0 1.2 4.1 355
07/12/2018 22:20 9.3 98 0.0 0 0.0 0.9 3.3 356
07/12/2018 22:30 9.3 98 0.0 0 0.1 1.1 3.9 122
07/12/2018 22:40 9.3 98 0.0 0 0.0 0.5 1.8 175
07/12/2018 22:50 9.3 99 0.0 0 0.0 1.4 4.9 130
07/12/2018 23:00 9.3 99 0.0 0 0.0 1.2 4.5 133
07/12/2018 23:10 9.3 99 0.0 0 0.0 0.9 3.1 134
07/12/2018 23:20 9.2 99 0.0 0 0.0 1.1 4.1 168
07/12/2018 23:30 9.2 99 0.0 0 0.0 0.8 2.7 104
07/12/2018 23:40 9.2 99 0.0 0 0.0 0.6 2.1 195
07/12/2018 23:50 9.1 99 0.0 0 0.0 0.7 2.4 51
Anterior Página 1 de 1 Siguiente

NOTA: Tipo de datos según el color:
   - Valores diarios o 10 minutos correctos
   - Valores diarios calculados a partir de un número de datos 10 minutos menor que 144 y mayor que 120, o de un número de datos semihorarios menor que 48 y mayor que 40 (caso de las estaciones de Riegos de Navarra y del MARM)
   - Valores diez minutos estimados


Contacto        Enlaces        Aviso legal